Time;durP1;ratioP1;P1;durP2;ratioP2;P2;SDS_P1;SDS_P2;PMS_P1;PMS_P2;Temp;Humidity;BMP_temperature;BMP_pressure;BME280_temperature;BME280_humidity;BME280_pressure;Samples;Min_cycle;Max_cycle;Signal;HPM_P1;HPM_P2
2022/03/01 07:16:47;;;;;;;26.60;10.60;;;;;;;-0.61;59.97;103602.91;4978989;28;20140;-78
2022/03/01 07:19:13;;;;;;;21.20;10.77;;;;;;;-0.54;60.17;103603.31;4973756;28;20524;-78
2022/03/01 07:21:39;;;;;;;23.17;12.07;;;;;;;-0.44;60.12;103604.38;4976784;28;20038;-79
2022/03/01 07:24:05;;;;;;;19.90;10.60;;;;;;;-0.33;60.15;103598.38;4970769;28;20409;-78
2022/03/01 07:26:31;;;;;;;22.50;11.38;;;;;;;-0.24;59.96;103605.63;4972241;28;20637;-78
2022/03/01 07:28:56;;;;;;;20.17;9.65;;;;;;;-0.13;60.08;103600.44;4975065;28;20022;-79
2022/03/01 07:31:22;;;;;;;22.88;11.95;;;;;;;-0.04;59.60;103601.56;4972195;28;20077;-79
2022/03/01 07:33:47;;;;;;;20.88;9.80;;;;;;;0.04;59.49;103601.91;4972391;28;20112;-78
2022/03/01 07:36:13;;;;;;;21.15;9.45;;;;;;;0.11;59.41;103594.38;4974594;28;20081;-79
2022/03/01 07:38:38;;;;;;;21.25;10.82;;;;;;;0.20;59.14;103594.56;4973519;28;20031;-78
2022/03/01 07:41:04;;;;;;;19.30;9.73;;;;;;;0.26;59.43;103594.13;4973859;28;20034;-79
2022/03/01 07:43:29;;;;;;;17.95;9.95;;;;;;;0.36;59.44;103593.44;4975781;28;20034;-79
2022/03/01 07:45:55;;;;;;;19.20;9.77;;;;;;;0.44;59.35;103591.94;4981102;28;20142;-78
2022/03/01 07:48:20;;;;;;;21.48;9.88;;;;;;;0.55;59.07;103599.09;4981457;28;20034;-78
2022/03/01 07:50:46;;;;;;;21.40;10.45;;;;;;;0.64;58.64;103592.28;4976448;28;20106;-78
2022/03/01 07:53:12;;;;;;;23.98;11.27;;;;;;;0.72;58.34;103593.41;4980699;28;20026;-78
2022/03/01 07:55:37;;;;;;;21.75;10.45;;;;;;;0.81;58.42;103589.22;4974746;28;20170;-77
2022/03/01 07:58:03;;;;;;;20.67;9.85;;;;;;;0.90;58.37;103594.69;4969742;28;20049;-78
2022/03/01 08:00:28;;;;;;;21.05;10.43;;;;;;;1.00;57.92;103586.91;4969821;28;20030;-78
2022/03/01 08:02:54;;;;;;;23.50;10.88;;;;;;;1.10;58.25;103589.69;4970288;28;20035;-78
2022/03/01 08:05:20;;;;;;;20.20;10.15;;;;;;;1.18;58.08;103593.41;4970050;28;20092;-78
2022/03/01 08:07:46;;;;;;;25.02;11.23;;;;;;;1.27;57.80;103589.25;4973643;28;20034;-77
2022/03/01 08:10:11;;;;;;;19.08;10.07;;;;;;;1.40;57.88;103587.31;4972236;28;20033;-77
2022/03/01 08:12:37;;;;;;;20.85;10.60;;;;;;;1.54;57.55;103582.78;4977001;28;20033;-77
2022/03/01 08:15:03;;;;;;;22.75;10.45;;;;;;;1.65;57.77;103580.16;4978765;28;20034;-78
2022/03/01 08:17:28;;;;;;;18.00;9.40;;;;;;;1.77;57.81;103584.47;4976279;28;20660;-78
2022/03/01 08:19:54;;;;;;;16.92;8.88;;;;;;;1.87;57.62;103580.13;4971870;28;20034;-77
2022/03/01 08:22:19;;;;;;;20.45;10.20;;;;;;;1.98;57.55;103582.78;4972664;28;20034;-77
2022/03/01 08:24:45;;;;;;;22.75;9.25;;;;;;;2.08;57.20;103581.06;4972214;28;20074;-78
2022/03/01 08:27:10;;;;;;;18.45;9.38;;;;;;;2.20;56.93;103583.72;4974550;28;20062;-78
2022/03/01 08:29:36;;;;;;;17.40;9.43;;;;;;;2.30;56.60;103576.69;4973353;28;20409;-78
2022/03/01 08:32:02;;;;;;;22.95;10.82;;;;;;;2.36;56.58;103574.41;4976663;28;20077;-77
2022/03/01 08:34:27;;;;;;;18.08;9.07;;;;;;;2.43;56.27;103572.94;4973317;28;20441;-78
2022/03/01 08:36:53;;;;;;;19.95;10.63;;;;;;;2.53;55.87;103567.75;4982516;28;20730;-78
2022/03/01 08:39:18;;;;;;;16.50;7.97;;;;;;;2.62;56.24;103566.97;4973772;28;20050;-77
2022/03/01 08:41:44;;;;;;;15.77;8.98;;;;;;;2.71;56.06;103576.81;4970687;28;20308;-78
2022/03/01 08:44:11;;;;;;;20.98;8.90;;;;;;;2.81;55.52;103565.44;4971082;28;20054;-78
2022/03/01 08:46:36;;;;;;;19.80;9.45;;;;;;;2.90;55.42;103570.81;4973813;28;20081;-78
2022/03/01 08:49:02;;;;;;;18.05;8.80;;;;;;;3.02;55.24;103567.13;4978400;28;20022;-78
2022/03/01 08:51:27;;;;;;;21.65;9.07;;;;;;;3.14;54.63;103561.75;4972726;28;20037;-77
2022/03/01 08:53:54;;;;;;;15.25;8.65;;;;;;;3.23;54.73;103559.19;4973952;28;20169;-78
2022/03/01 08:56:21;;;;;;;18.05;9.10;;;;;;;3.32;54.63;103557.53;4969668;28;20030;-78
2022/03/01 08:58:47;;;;;;;19.63;9.32;;;;;;;3.40;54.57;103551.56;4973213;28;20034;-79
2022/03/01 09:01:14;;;;;;;20.13;9.30;;;;;;;3.48;54.19;103546.47;4982800;28;20038;-79
2022/03/01 09:03:40;;;;;;;16.52;8.00;;;;;;;3.58;53.91;103553.47;4979917;28;20052;-79
2022/03/01 09:06:06;;;;;;;16.50;8.00;;;;;;;3.69;53.82;103552.53;4979556;28;20025;-79
2022/03/01 09:08:40;;;;;;;16.23;8.13;;;;;;;3.77;53.25;103544.78;4985652;28;20050;-79
2022/03/01 09:11:05;;;;;;;16.45;8.55;;;;;;;3.92;53.30;103542.56;4977194;28;20424;-79
2022/03/01 09:13:31;;;;;;;16.85;8.65;;;;;;;4.03;53.42;103544.28;4974592;28;20121;-79
2022/03/01 09:15:57;;;;;;;15.38;8.15;;;;;;;4.11;52.64;103539.94;4978267;28;20069;-79
2022/03/01 09:18:22;;;;;;;19.05;8.68;;;;;;;4.18;52.18;103549.03;4975122;28;20035;-79
2022/03/01 09:20:48;;;;;;;13.55;7.70;;;;;;;4.28;52.18;103546.38;4979892;28;20029;-79
2022/03/01 09:23:14;;;;;;;15.30;8.52;;;;;;;4.37;52.09;103531.47;4984830;28;20031;-79
2022/03/01 09:25:40;;;;;;;16.23;8.63;;;;;;;4.47;51.47;103533.13;4981856;28;20023;-79
2022/03/01 09:28:06;;;;;;;12.77;7.18;;;;;;;4.52;51.45;103535.38;4984182;28;20049;-78
2022/03/01 09:30:32;;;;;;;14.60;7.32;;;;;;;4.54;50.75;103534.25;4974141;28;20962;-79
2022/03/01 09:32:58;;;;;;;12.07;7.30;;;;;;;4.62;50.82;103530.91;4972935;28;20073;-79
2022/03/01 09:35:23;;;;;;;18.52;8.35;;;;;;;4.72;50.71;103531.75;4974263;28;20554;-79
2022/03/01 09:37:49;;;;;;;12.63;7.15;;;;;;;4.82;50.48;103515.78;4977491;28;20045;-79
2022/03/01 09:40:15;;;;;;;16.20;8.02;;;;;;;4.95;50.51;103518.13;4980861;28;20032;-78
2022/03/01 09:42:41;;;;;;;13.95;6.70;;;;;;;5.04;49.82;103514.63;4986999;28;20018;-78
2022/03/01 09:45:10;;;;;;;15.65;7.65;;;;;;;5.14;49.82;103508.28;4983619;28;20033;-78
2022/03/01 09:47:36;;;;;;;13.98;7.85;;;;;;;5.24;49.33;103508.28;4982236;28;20034;-78
2022/03/01 09:50:03;;;;;;;13.25;6.90;;;;;;;5.30;49.55;103498.88;4979821;28;20499;-79
2022/03/01 09:52:28;;;;;;;14.45;7.63;;;;;;;5.38;49.58;103509.59;4977841;28;20097;-79
2022/03/01 09:54:54;;;;;;;14.20;6.97;;;;;;;5.43;48.94;103510.00;4979924;28;20459;-79
2022/03/01 09:57:20;;;;;;;15.20;7.47;;;;;;;5.53;49.06;103501.97;4978128;28;20038;-79
2022/03/01 09:59:46;;;;;;;12.93;7.47;;;;;;;5.62;48.72;103503.75;4980619;28;20037;-79
2022/03/01 10:02:13;;;;;;;12.98;6.95;;;;;;;5.68;48.34;103504.00;4974946;28;20022;-78
2022/03/01 10:04:53;;;;;;;15.82;7.10;;;;;;;5.65;47.53;103500.81;4984151;28;20026;-79
2022/03/01 10:07:24;;;;;;;16.02;7.10;;;;;;;5.78;48.05;103495.13;4980896;28;20543;-79
2022/03/01 10:09:50;;;;;;;17.33;7.47;;;;;;;5.89;47.73;103492.25;4976098;28;20018;-78
2022/03/01 10:12:26;;;;;;;14.32;6.95;;;;;;;5.98;47.20;103492.22;4976113;28;20042;-78
2022/03/01 10:15:04;;;;;;;14.90;7.05;;;;;;;6.08;46.76;103484.16;4983137;28;20022;-78
2022/03/01 10:17:41;;;;;;;11.77;6.88;;;;;;;6.20;46.60;103487.44;4980736;28;20038;-78
2022/03/01 10:20:10;;;;;;;14.23;6.75;;;;;;;6.32;47.02;103487.06;4975359;28;20029;-78
2022/03/01 10:22:44;;;;;;;10.63;6.35;;;;;;;6.41;46.43;103481.81;4976948;28;20034;-78
2022/03/01 10:25:10;;;;;;;8.35;5.38;;;;;;;6.49;46.36;103477.41;4980311;28;20034;-78
2022/03/01 10:27:36;;;;;;;9.77;4.95;;;;;;;6.41;45.49;103476.47;4981795;28;20027;-78
2022/03/01 10:30:05;;;;;;;7.13;4.35;;;;;;;6.30;44.15;103477.56;4983784;28;20038;-78
2022/03/01 10:32:34;;;;;;;6.47;4.63;;;;;;;6.11;42.77;103465.25;4975414;28;20052;-78
2022/03/01 10:35:07;;;;;;;9.60;4.15;;;;;;;6.03;44.21;103473.16;4984419;28;20031;-78
2022/03/01 10:37:38;;;;;;;8.20;5.38;;;;;;;6.00;44.19;103468.13;4972930;28;20485;-78
2022/03/01 10:40:22;;;;;;;7.65;4.82;;;;;;;6.14;42.90;103470.28;4969495;28;20117;-77
2022/03/01 10:43:07;;;;;;;9.93;4.60;;;;;;;6.35;44.03;103454.81;4981546;28;20026;-78
2022/03/01 10:45:46;;;;;;;10.05;5.05;;;;;;;6.60;44.01;103465.63;4970858;28;20038;-78
2022/03/01 10:48:26;;;;;;;10.25;6.40;;;;;;;6.79;43.40;103456.63;4975244;28;20070;-77
2022/03/01 10:51:09;;;;;;;9.05;4.88;;;;;;;6.81;41.88;103455.47;4976493;28;20030;-76
2022/03/01 10:53:35;;;;;;;9.27;4.47;;;;;;;6.94;43.00;103455.88;4974731;28;20038;-77
2022/03/01 10:56:09;;;;;;;10.25;5.10;;;;;;;6.75;41.45;103449.94;4969665;28;20045;-77
2022/03/01 10:58:37;;;;;;;7.47;4.33;;;;;;;6.65;42.38;103445.56;4971231;28;20117;-76
2022/03/01 11:01:04;;;;;;;6.78;4.63;;;;;;;6.70;42.49;103438.91;4975375;28;20281;-76
2022/03/01 11:03:30;;;;;;;8.40;4.38;;;;;;;6.80;42.41;103435.13;4976524;28;20069;-76
2022/03/01 11:05:57;;;;;;;8.02;4.75;;;;;;;6.78;42.11;103434.47;4973824;28;20057;-76
2022/03/01 11:08:30;;;;;;;6.97;4.43;;;;;;;6.85;42.12;103427.53;4968740;28;20095;-77
2022/03/01 11:10:58;;;;;;;11.10;5.18;;;;;;;6.90;42.29;103422.53;4977371;28;20027;-77
2022/03/01 11:13:25;;;;;;;8.93;4.93;;;;;;;7.03;42.13;103419.47;4974605;28;20030;-79
2022/03/01 11:15:56;;;;;;;6.93;4.95;;;;;;;7.09;41.26;103415.31;4964941;28;20030;-77
2022/03/01 11:18:43;;;;;;;10.07;5.35;;;;;;;7.25;41.14;103413.53;4965418;28;20104;-77
2022/03/01 11:21:10;;;;;;;6.60;4.35;;;;;;;7.45;41.62;103407.94;4965695;28;20031;-77
2022/03/01 11:23:36;;;;;;;7.85;4.75;;;;;;;7.50;41.38;103402.94;4965994;28;20057;-77
2022/03/01 11:26:12;;;;;;;10.75;5.45;;;;;;;7.48;40.30;103404.94;4971573;28;20030;-77
2022/03/01 11:28:41;;;;;;;8.95;5.78;;;;;;;7.51;41.34;103396.59;4967661;28;20038;-77
2022/03/01 11:31:27;;;;;;;10.13;5.30;;;;;;;7.62;40.79;103390.97;4967309;28;20425;-77
2022/03/01 11:33:56;;;;;;;8.68;5.40;;;;;;;7.94;41.00;103384.84;4968421;28;20062;-77
2022/03/01 11:36:25;;;;;;;9.07;5.07;;;;;;;8.25;41.06;103378.81;4967301;28;20058;-77
2022/03/01 11:38:50;;;;;;;10.23;5.35;;;;;;;8.49;40.86;103373.50;4969605;28;20033;-77
2022/03/01 11:41:20;;;;;;;11.43;5.88;;;;;;;8.66;40.77;103371.63;4971020;28;20042;-77
2022/03/01 11:44:12;;;;;;;9.93;5.88;;;;;;;8.83;38.97;103381.25;4972377;28;20045;-77
2022/03/01 11:46:41;;;;;;;9.75;5.72;;;;;;;9.00;40.16;103366.00;4977482;28;20046;-77
2022/03/01 11:49:07;;;;;;;10.85;5.60;;;;;;;9.15;39.74;103368.75;4972540;28;20481;-77
2022/03/01 11:51:36;;;;;;;13.60;6.07;;;;;;;9.19;39.52;103362.06;4972765;28;20034;-77
2022/03/01 11:54:08;;;;;;;13.82;6.47;;;;;;;9.38;38.94;103362.44;4973958;28;20097;-77
2022/03/01 11:56:35;;;;;;;12.07;6.82;;;;;;;9.48;38.94;103358.69;4973511;28;20425;-77
2022/03/01 11:59:07;;;;;;;9.18;6.03;;;;;;;9.42;38.62;103354.88;4970500;28;20034;-77
2022/03/01 12:01:33;;;;;;;11.57;6.57;;;;;;;9.60;38.69;103355.44;4974132;28;20035;-77
2022/03/01 12:04:05;;;;;;;10.00;6.00;;;;;;;9.64;37.55;103358.59;4971711;28;20054;-77
2022/03/01 12:06:33;;;;;;;9.93;5.47;;;;;;;9.74;37.54;103348.50;4972831;28;20061;-77
2022/03/01 12:09:03;;;;;;;8.18;5.22;;;;;;;9.79;37.60;103353.28;4972409;28;20034;-77
2022/03/01 12:11:42;;;;;;;10.77;5.93;;;;;;;9.89;36.36;103345.88;4972230;28;20113;-77
2022/03/01 12:14:18;;;;;;;9.80;6.20;;;;;;;10.08;36.53;103339.16;4970275;28;20124;-77
2022/03/01 12:16:45;;;;;;;10.52;5.90;;;;;;;10.22;37.11;103338.38;4972624;28;20513;-77
2022/03/01 12:19:16;;;;;;;10.27;6.30;;;;;;;10.13;35.84;103336.78;4974535;28;20246;-77
2022/03/01 12:21:53;;;;;;;10.32;6.53;;;;;;;10.21;35.53;103329.50;4973752;28;20026;-77
2022/03/01 12:24:20;;;;;;;12.32;6.45;;;;;;;10.42;36.69;103320.78;4978957;28;20038;-77
2022/03/01 12:26:57;;;;;;;11.57;6.45;;;;;;;10.50;35.84;103323.34;5105601;23;20078;-55
2022/03/01 12:29:25;;;;;;;12.07;6.68;;;;;;;10.59;35.97;103324.94;4960028;28;20184;-54
2022/03/01 12:32:05;;;;;;;9.93;6.40;;;;;;;10.74;35.50;103326.75;4956091;28;20388;-54
2022/03/01 12:34:33;;;;;;;12.30;6.78;;;;;;;10.87;36.14;103313.53;4960705;28;20114;-53
2022/03/01 12:37:02;;;;;;;9.77;6.22;;;;;;;10.98;36.28;103318.41;4964736;28;20104;-53
2022/03/01 12:39:28;;;;;;;10.98;6.32;;;;;;;11.17;35.87;103315.13;4960212;28;20031;-52
2022/03/01 12:41:55;;;;;;;11.10;6.68;;;;;;;11.10;35.53;103316.06;4974091;23;20425;-48
2022/03/01 12:44:23;;;;;;;12.93;7.05;;;;;;;11.25;35.63;103311.47;4961638;28;20511;-49
2022/03/01 12:46:50;;;;;;;11.52;5.88;;;;;;;11.47;35.71;103312.31;4964459;28;20026;-50
2022/03/01 12:49:17;;;;;;;12.77;6.30;;;;;;;11.69;35.39;103303.25;4963609;28;20070;-48
2022/03/01 12:51:44;;;;;;;11.48;6.53;;;;;;;11.91;35.33;103309.47;4958860;28;20054;-52
2022/03/01 12:54:14;;;;;;;8.82;6.03;;;;;;;12.05;34.82;103310.41;4958762;28;20357;-49
2022/03/01 12:56:49;;;;;;;11.48;5.50;;;;;;;12.13;34.85;103304.88;4958120;28;20042;-51
2022/03/01 12:59:20;;;;;;;12.63;6.78;;;;;;;12.27;34.13;103298.56;4960326;28;20148;-51
2022/03/01 13:01:54;;;;;;;8.98;6.03;;;;;;;12.29;33.80;103291.13;4963153;28;20130;-49
2022/03/01 13:04:24;;;;;;;10.00;6.47;;;;;;;12.36;33.61;103294.66;4960016;28;20309;-48
2022/03/01 13:06:50;;;;;;;8.57;5.50;;;;;;;12.39;33.74;103288.09;4959313;28;20041;-50
2022/03/01 13:09:16;;;;;;;10.20;5.43;;;;;;;12.40;33.81;103295.97;4955533;28;20488;-49
2022/03/01 13:11:46;;;;;;;9.65;6.22;;;;;;;12.43;33.23;103286.66;4957947;28;20539;-50
2022/03/01 13:14:13;;;;;;;9.95;6.32;;;;;;;12.42;33.42;103285.00;4961005;28;20115;-56
2022/03/01 13:16:44;;;;;;;9.13;5.47;;;;;;;12.43;32.61;103285.84;4958480;28;20035;-52
2022/03/01 13:19:13;;;;;;;10.90;6.50;;;;;;;12.44;32.87;103288.31;4966202;28;20029;-53
2022/03/01 13:21:51;;;;;;;10.32;6.28;;;;;;;12.26;31.82;103283.47;4962453;28;20034;-53
2022/03/01 13:24:28;;;;;;;8.85;6.05;;;;;;;12.21;32.88;103280.53;4987777;23;20198;-70
2022/03/01 13:26:55;;;;;;;12.57;5.88;;;;;;;12.27;33.02;103282.44;4975871;28;20109;-71
2022/03/01 13:29:21;;;;;;;12.57;6.88;;;;;;;12.43;32.99;103280.47;4977016;28;20591;-70
2022/03/01 13:31:49;;;;;;;10.88;6.20;;;;;;;12.60;32.92;103281.78;4978018;28;20037;-70
2022/03/01 13:34:18;;;;;;;10.65;6.10;;;;;;;12.69;32.50;103280.56;4975938;28;20073;-71
2022/03/01 13:36:49;;;;;;;9.88;5.65;;;;;;;12.66;31.98;103278.28;4978424;28;20072;-71
2022/03/01 13:39:17;;;;;;;9.63;6.65;;;;;;;12.54;31.76;103275.31;4973859;28;20026;-71
2022/03/01 13:41:45;;;;;;;9.18;6.03;;;;;;;12.54;32.02;103266.44;4979048;28;20428;-71
2022/03/01 13:44:17;;;;;;;9.05;6.25;;;;;;;12.56;31.60;103267.06;4974015;28;20563;-71
2022/03/01 13:47:19;;;;;;;10.40;6.15;;;;;;;12.56;31.26;103261.66;4979803;28;20407;-71
2022/03/01 13:49:57;;;;;;;9.68;6.22;;;;;;;12.68;31.42;103254.69;4970749;28;20080;-71
2022/03/01 13:52:25;;;;;;;10.45;6.22;;;;;;;12.70;31.27;103258.84;4977619;28;21048;-71
2022/03/01 13:55:00;;;;;;;10.13;6.32;;;;;;;12.54;31.18;103259.19;4970966;28;20026;-71
2022/03/01 13:57:43;;;;;;;8.82;5.93;;;;;;;12.51;31.10;103256.91;4971904;28;20539;-70
2022/03/01 14:00:22;;;;;;;10.45;5.95;;;;;;;12.58;31.03;103254.25;4976846;28;20030;-70
2022/03/01 14:03:03;;;;;;;10.27;5.85;;;;;;;12.70;30.96;103253.47;4982246;28;20075;-71
2022/03/01 14:05:29;;;;;;;11.55;5.97;;;;;;;12.69;31.03;103240.22;4972249;28;20029;-71
2022/03/01 14:08:03;;;;;;;7.82;4.97;;;;;;;12.54;29.83;103247.59;4974096;28;20032;-71
2022/03/01 14:10:30;;;;;;;9.98;5.43;;;;;;;12.44;30.71;103239.09;4975945;28;20512;-71
2022/03/01 14:13:06;;;;;;;9.50;5.22;;;;;;;12.36;29.85;103246.28;4977187;28;20037;-71
2022/03/01 14:15:38;;;;;;;7.85;5.15;;;;;;;12.39;30.54;103229.78;4974726;28;20026;-71
2022/03/01 14:18:04;;;;;;;8.43;5.32;;;;;;;12.43;30.74;103227.50;4975763;28;20082;-71
2022/03/01 14:20:29;;;;;;;7.03;4.70;;;;;;;12.45;30.74;103222.75;4975798;28;20026;-71
2022/03/01 14:22:56;;;;;;;9.20;5.00;;;;;;;12.36;30.23;103223.94;4969653;28;20026;-71
2022/03/01 14:25:22;;;;;;;10.15;5.35;;;;;;;12.13;30.43;103224.25;4972224;28;20042;-71
2022/03/01 14:27:48;;;;;;;7.32;4.95;;;;;;;11.84;30.88;103219.09;4971744;28;20052;-71
2022/03/01 14:30:13;;;;;;;9.07;4.55;;;;;;;11.55;31.18;103225.47;4978102;28;20484;-71
2022/03/01 14:32:41;;;;;;;7.63;4.68;;;;;;;11.29;31.61;103226.88;4972108;28;20061;-71
2022/03/01 14:35:07;;;;;;;8.00;4.93;;;;;;;11.04;31.87;103222.91;4972280;28;20031;-71
2022/03/01 14:37:33;;;;;;;7.70;5.20;;;;;;;10.78;32.11;103218.13;4969600;28;20097;-70
2022/03/01 14:39:58;;;;;;;11.20;5.57;;;;;;;10.50;32.11;103216.13;4973312;28;20316;-71
2022/03/01 14:42:24;;;;;;;11.65;6.20;;;;;;;10.24;32.32;103202.41;4972676;28;20096;-71
2022/03/01 14:44:49;;;;;;;8.15;5.45;;;;;;;10.00;32.11;103215.00;4978390;28;20037;-71
2022/03/01 14:47:15;;;;;;;11.23;5.93;;;;;;;9.78;33.16;103204.38;4988416;28;20037;-71
2022/03/01 14:49:40;;;;;;;9.25;5.53;;;;;;;9.56;32.53;103196.22;4988162;28;20023;-71
2022/03/01 14:52:07;;;;;;;11.18;5.55;;;;;;;9.40;32.78;103199.03;4973797;28;20022;-71
2022/03/01 14:54:33;;;;;;;9.95;5.65;;;;;;;9.30;33.10;103188.56;4976408;28;20257;-71
2022/03/01 14:56:58;;;;;;;8.38;5.32;;;;;;;9.24;33.03;103191.16;4979585;28;20114;-70
2022/03/01 14:59:24;;;;;;;8.50;5.22;;;;;;;9.11;32.89;103183.72;4983304;28;20037;-71
2022/03/01 15:01:49;;;;;;;9.05;5.10;;;;;;;9.00;33.28;103189.50;4983119;28;20025;-71
2022/03/01 15:04:15;;;;;;;12.15;5.50;;;;;;;8.91;33.62;103177.19;4981075;28;20319;-70
2022/03/01 15:06:41;;;;;;;10.10;5.53;;;;;;;8.87;33.83;103178.56;4980720;28;20733;-70
2022/03/01 15:09:07;;;;;;;9.38;5.88;;;;;;;8.82;33.73;103173.75;4991453;28;20033;-71
2022/03/01 15:11:33;;;;;;;9.70;5.75;;;;;;;8.77;33.73;103176.09;4974686;28;20038;-70
2022/03/01 15:14:02;;;;;;;10.98;5.70;;;;;;;8.72;33.86;103173.97;4979963;28;20040;-70
2022/03/01 15:16:27;;;;;;;9.98;6.10;;;;;;;8.61;34.09;103168.16;4976135;28;20109;-70
2022/03/01 15:18:53;;;;;;;10.77;6.20;;;;;;;8.53;34.11;103163.72;4981981;28;20033;-70
2022/03/01 15:21:19;;;;;;;10.80;5.50;;;;;;;8.46;33.81;103170.78;4975906;28;20186;-71
2022/03/01 15:23:44;;;;;;;9.60;5.70;;;;;;;8.37;33.87;103166.47;4982238;28;20034;-71
2022/03/01 15:26:10;;;;;;;10.05;5.88;;;;;;;8.29;34.05;103167.31;4977758;28;20089;-71
2022/03/01 15:28:35;;;;;;;10.88;5.75;;;;;;;8.23;34.30;103172.50;4972491;28;20042;-71
2022/03/01 15:31:02;;;;;;;8.48;5.45;;;;;;;8.21;34.39;103166.50;4985632;28;20088;-71
2022/03/01 15:33:27;;;;;;;9.23;5.20;;;;;;;8.22;33.86;103166.31;4975523;28;20476;-71
2022/03/01 15:35:54;;;;;;;9.85;5.68;;;;;;;8.29;34.30;103158.47;4977971;28;20080;-70
2022/03/01 15:38:19;;;;;;;12.48;5.65;;;;;;;8.37;34.38;103156.63;4981849;28;20026;-70
2022/03/01 15:40:46;;;;;;;10.20;5.63;;;;;;;8.50;34.40;103161.41;4981504;28;20491;-70
2022/03/01 15:43:11;;;;;;;7.78;5.43;;;;;;;8.73;34.17;103161.41;4981517;28;20404;-71
2022/03/01 15:45:37;;;;;;;8.95;5.22;;;;;;;8.99;33.98;103161.94;4974586;28;20088;-71
2022/03/01 15:48:03;;;;;;;11.32;5.40;;;;;;;9.21;34.17;103154.88;4977253;28;20061;-70
2022/03/01 15:50:30;;;;;;;10.23;6.30;;;;;;;9.29;33.68;103157.47;4970858;28;20031;-71
2022/03/01 15:52:55;;;;;;;13.70;6.22;;;;;;;9.15;34.12;103152.09;4972355;28;20030;-71
2022/03/01 15:55:22;;;;;;;10.38;6.20;;;;;;;9.07;34.27;103153.00;4972594;28;20551;-71
2022/03/01 15:57:48;;;;;;;9.68;5.57;;;;;;;8.93;34.29;103151.09;4975875;28;20036;-70
2022/03/01 16:00:16;;;;;;;10.88;5.70;;;;;;;8.72;34.65;103149.91;4972149;28;20046;-71
2022/03/01 16:02:42;;;;;;;11.48;6.15;;;;;;;8.60;34.79;103151.31;4972573;28;20031;-71
2022/03/01 16:05:08;;;;;;;12.50;6.00;;;;;;;8.57;35.33;103149.00;4974128;28;20081;-70
2022/03/01 16:07:34;;;;;;;10.98;5.85;;;;;;;8.57;34.92;103145.50;4974446;28;20408;-71
2022/03/01 16:10:00;;;;;;;11.05;5.75;;;;;;;8.50;35.25;103150.72;4969877;28;20456;-70
2022/03/01 16:12:25;;;;;;;10.90;6.03;;;;;;;8.40;35.54;103145.56;4966789;28;20066;-71
2022/03/01 16:14:52;;;;;;;11.45;6.50;;;;;;;8.30;35.96;103142.28;4973656;28;20464;-71
2022/03/01 16:17:19;;;;;;;10.48;6.32;;;;;;;8.18;36.11;103139.16;4970341;28;20028;-71
2022/03/01 16:19:45;;;;;;;11.90;7.05;;;;;;;8.06;36.31;103137.84;4979272;28;20052;-72
2022/03/01 16:22:10;;;;;;;12.75;7.82;;;;;;;7.96;36.64;103137.25;4970225;28;20026;-71
2022/03/01 16:24:37;;;;;;;16.55;8.27;;;;;;;7.84;37.34;103134.09;4976738;28;20217;-71
2022/03/01 16:27:03;;;;;;;15.95;8.57;;;;;;;7.76;37.04;103125.28;4973865;28;20030;-71
2022/03/01 16:29:29;;;;;;;18.25;9.38;;;;;;;7.69;37.72;103129.63;4973912;28;20031;-71
2022/03/01 16:31:55;;;;;;;27.70;11.75;;;;;;;7.61;37.62;103127.84;4969094;28;20038;-71
2022/03/01 16:34:20;;;;;;;21.13;11.32;;;;;;;7.53;38.11;103130.50;4972854;28;20038;-71
2022/03/01 16:36:46;;;;;;;33.38;15.25;;;;;;;7.46;37.77;103134.84;4973788;28;20030;-70
2022/03/01 16:39:12;;;;;;;29.25;13.82;;;;;;;7.37;38.38;103125.22;4977192;28;20038;-68
2022/03/01 16:41:38;;;;;;;28.25;14.18;;;;;;;7.27;38.49;103126.22;4986115;28;20751;-70
2022/03/01 16:44:05;;;;;;;33.28;17.48;;;;;;;7.20;39.04;103130.56;4979450;28;20309;-68
2022/03/01 16:46:36;;;;;;;40.95;19.55;;;;;;;7.09;39.06;103133.56;4973439;28;20109;-68
2022/03/01 16:49:03;;;;;;;40.15;20.15;;;;;;;7.06;39.15;103138.38;4976434;28;20030;-68
2022/03/01 16:51:29;;;;;;;38.20;20.42;;;;;;;7.01;39.51;103138.91;4978020;28;20042;-68
2022/03/01 16:53:55;;;;;;;41.13;21.98;;;;;;;6.96;39.37;103144.69;4976018;28;20483;-68
2022/03/01 16:56:21;;;;;;;45.67;22.70;;;;;;;6.91;39.83;103148.88;4974345;28;20026;-68
2022/03/01 16:58:49;;;;;;;43.22;22.83;;;;;;;6.85;39.87;103147.72;4982459;28;20026;-68
2022/03/01 17:01:15;;;;;;;38.35;21.75;;;;;;;6.79;40.06;103143.00;4980192;28;20117;-68
2022/03/01 17:03:40;;;;;;;40.13;22.13;;;;;;;6.72;40.37;103142.03;4980733;28;20143;-68
2022/03/01 17:06:08;;;;;;;45.15;21.02;;;;;;;6.64;40.19;103140.19;4979159;28;20045;-69
2022/03/01 17:08:35;;;;;;;43.88;21.15;;;;;;;6.59;40.40;103141.66;4979645;28;20033;-68
2022/03/01 17:11:03;;;;;;;39.58;21.30;;;;;;;6.51;40.28;103139.81;4977310;28;20664;-68
2022/03/01 17:13:28;;;;;;;34.53;19.85;;;;;;;6.45;40.64;103142.28;4979675;28;20030;-68
2022/03/01 17:15:54;;;;;;;38.97;18.42;;;;;;;6.36;41.03;103134.28;4976716;28;20039;-67
2022/03/01 17:18:20;;;;;;;29.77;16.33;;;;;;;6.29;41.11;103130.59;4978248;28;20232;-68
2022/03/01 17:20:48;;;;;;;27.00;13.90;;;;;;;6.22;41.23;103140.22;4974115;28;20393;-68
2022/03/01 17:23:15;;;;;;;30.05;14.32;;;;;;;6.16;41.43;103132.03;4976625;28;20073;-68
2022/03/01 17:25:41;;;;;;;24.75;13.60;;;;;;;6.09;41.32;103134.50;4979427;28;21013;-68
2022/03/01 17:28:07;;;;;;;25.10;12.07;;;;;;;6.02;41.86;103141.47;4981354;28;20026;-68
2022/03/01 17:30:34;;;;;;;23.25;11.52;;;;;;;5.97;41.90;103147.28;4975740;28;20129;-68
2022/03/01 17:33:00;;;;;;;20.15;10.38;;;;;;;5.91;42.09;103136.41;4973051;28;20037;-68
2022/03/01 17:35:26;;;;;;;17.67;9.60;;;;;;;5.84;41.84;103138.84;4969424;28;20026;-68
2022/03/01 17:37:52;;;;;;;20.83;9.65;;;;;;;5.76;41.98;103142.31;4967953;28;20109;-68
2022/03/01 17:41:05;;;;;;;19.00;10.20;;;;;;;5.60;42.59;103128.09;4970429;28;20157;-68
2022/03/01 17:43:31;;;;;;;19.77;8.88;;;;;;;5.58;42.50;103130.91;4970222;28;20404;-68
2022/03/01 17:45:56;;;;;;;14.75;8.55;;;;;;;5.54;42.55;103134.00;4970844;28;20031;-68
2022/03/01 17:48:22;;;;;;;15.07;7.70;;;;;;;5.42;42.78;103131.63;4973184;28;20029;-69
2022/03/01 17:50:59;;;;;;;13.77;7.47;;;;;;;5.20;43.08;103125.94;4971754;28;20495;-68
2022/03/01 17:53:24;;;;;;;15.13;7.00;;;;;;;5.14;43.13;103124.75;4970628;28;20027;-70
2022/03/01 17:59:12;;;;;;;14.43;7.55;;;;;;;5.01;43.53;103125.13;4977287;28;20495;-70
2022/03/01 18:01:37;;;;;;;15.02;7.68;;;;;;;4.98;43.51;103117.47;4974461;28;20030;-70
2022/03/01 18:04:04;;;;;;;14.98;7.70;;;;;;;4.94;43.26;103123.25;4976149;28;20030;-70
2022/03/01 18:06:30;;;;;;;13.25;7.50;;;;;;;4.92;43.49;103117.25;4969969;28;20442;-70
2022/03/01 18:08:56;;;;;;;14.95;7.90;;;;;;;4.86;43.73;103129.34;4971726;28;20031;-70
2022/03/01 18:11:21;;;;;;;16.02;7.22;;;;;;;4.81;43.48;103123.63;4970696;28;20030;-70
2022/03/01 18:13:48;;;;;;;13.50;7.38;;;;;;;4.75;43.96;103121.59;4974516;28;20025;-70
2022/03/01 18:16:14;;;;;;;19.25;7.55;;;;;;;4.70;44.07;103123.88;4975222;28;20530;-70
2022/03/01 18:18:40;;;;;;;13.52;7.28;;;;;;;4.65;44.17;103131.44;4974192;28;20054;-70
2022/03/01 18:21:06;;;;;;;16.35;7.68;;;;;;;4.60;44.12;103131.06;4972295;28;20082;-70
2022/03/01 18:23:34;;;;;;;18.45;8.20;;;;;;;4.52;44.13;103130.00;4972299;28;20034;-68
2022/03/01 18:26:01;;;;;;;17.08;7.32;;;;;;;4.46;44.30;103135.88;4972005;28;20575;-68
2022/03/01 18:28:27;;;;;;;16.33;7.57;;;;;;;4.40;44.52;103122.41;4973405;28;20030;-68
2022/03/01 18:30:53;;;;;;;14.90;7.55;;;;;;;4.32;44.71;103128.47;4975597;28;20019;-68
2022/03/01 18:33:19;;;;;;;15.23;7.28;;;;;;;4.27;44.72;103124.56;4978100;28;20030;-67
2022/03/01 18:35:45;;;;;;;13.43;7.45;;;;;;;4.22;44.87;103130.31;4973486;28;20053;-68
2022/03/01 18:38:11;;;;;;;15.32;8.18;;;;;;;4.18;45.18;103128.94;4970500;28;20026;-68
2022/03/01 18:40:39;;;;;;;15.98;8.32;;;;;;;4.12;45.02;103130.34;4974188;28;20015;-68
2022/03/01 18:43:09;;;;;;;13.20;8.00;;;;;;;4.03;45.50;103119.81;4975318;28;20038;-69
2022/03/01 18:45:54;;;;;;;18.98;9.10;;;;;;;3.97;45.20;103123.06;5003627;28;20118;-67
2022/03/01 18:48:21;;;;;;;16.10;8.18;;;;;;;3.88;45.37;103122.94;4976643;28;20125;-67